Terminal Aerodrome Forecast
Issued by NWS

Home | Current Version | Previous Version | Text Only | Print | Product List | Glossary On
Versions: 1 2 3 4 5 6 7 8 9 10 11 12 13 14 15
000
FTUS46 KPDT 011720
TAFBDN
TAF
KBDN 011720Z 0118/0218 35006KT P6SM SCT150 BKN250
     FM012300 35011KT P6SM VCSH SCT100 BKN150
     FM020400 30008KT P6SM FEW120 SCT200
     FM020900 21005KT P6SM SCT150
     FM021600 VRB05KT P6SM SCT120 BKN200=

USA.gov is the U.S. government's official web portal to all federal, state and local government web resources and services.